Falls City, Texas
Current Conditions -  °F | °C
As of 9:15 AM on Thursday 30 Oct 2014 (Local Time) from KPEZ Reporting Station
Clear Clear  
Wind Chill: 68°   Ceiling: Unl
Heat Index: 68°   Visibility: 7mi
Dew Point: 64°   Wind: 6mph
Humidity: 85%   Direction: 80°E
Pressure: 30.13"   Gusts: NA
Location:  28.98°N, 98.02°W
Report Text: KPEZ 301415Z AUTO 08005KT 7SM CLR 20/18 A3013 RMK AO2 T02000175
Loading
Personal Weather Stations






























Interactive Weather Map
Tropical Storm Tracking
New forecast layout! Learn more

10-Day Weather Forecast

Advertisements
Track Severe Weather on mobile